createdAt,value
2017-05-20T00:00:16.122Z,22.82
2017-05-20T00:01:26.078Z,22.86
2017-05-20T00:02:35.717Z,22.83
2017-05-20T00:03:45.682Z,22.86
2017-05-20T00:04:55.643Z,22.86
2017-05-20T00:06:05.912Z,22.9
2017-05-20T00:07:16.173Z,22.91
2017-05-20T00:08:26.128Z,22.95
2017-05-20T00:09:36.394Z,22.85
2017-05-20T00:10:46.349Z,22.92
2017-05-20T00:11:55.995Z,22.83
2017-05-20T00:13:05.320Z,22.94
2017-05-20T00:14:14.957Z,22.9
2017-05-20T00:15:24.279Z,22.92
2017-05-20T00:16:33.910Z,22.86
2017-05-20T00:17:43.547Z,22.82
2017-05-20T00:18:53.823Z,22.88
2017-05-20T00:20:03.157Z,22.77
2017-05-20T00:21:13.121Z,22.8
2017-05-20T00:22:22.757Z,22.85
2017-05-20T00:23:33.024Z,22.82
2017-05-20T00:24:43.295Z,22.82
2017-05-20T00:25:53.252Z,22.76
2017-05-20T00:27:03.213Z,22.79
2017-05-20T00:28:12.848Z,22.73
2017-05-20T00:29:22.495Z,22.79
2017-05-20T00:30:32.138Z,22.8
2017-05-20T00:31:42.093Z,22.68
2017-05-20T00:32:52.061Z,22.72
2017-05-20T00:34:02.019Z,22.76
2017-05-20T00:35:11.655Z,22.75
2017-05-20T00:36:21.920Z,22.72
2017-05-20T00:37:32.181Z,22.75
2017-05-20T00:38:42.457Z,22.73
2017-05-20T00:39:52.417Z,22.79
2017-05-20T00:41:02.054Z,22.82
2017-05-20T00:42:12.326Z,22.76
2017-05-20T00:43:21.963Z,22.68
2017-05-20T00:44:31.916Z,22.79
2017-05-20T00:45:41.871Z,22.76
2017-05-20T00:46:51.512Z,22.76
2017-05-20T00:48:01.155Z,22.67
2017-05-20T00:49:10.797Z,22.76
2017-05-20T00:50:21.062Z,22.72
2017-05-20T00:51:31.013Z,22.76
2017-05-20T00:52:40.972Z,22.72
2017-05-20T00:53:51.249Z,22.75
2017-05-20T00:55:01.516Z,22.77
2017-05-20T00:56:11.785Z,22.72
2017-05-20T00:57:21.737Z,22.76
2017-05-20T00:58:32.008Z,22.72
2017-05-20T00:59:42.313Z,22.77
2017-05-20T01:00:52.263Z,22.73
2017-05-20T01:02:01.892Z,22.75
2017-05-20T01:03:12.162Z,22.73
2017-05-20T01:04:22.120Z,22.75
2017-05-20T01:05:32.389Z,22.73
2017-05-20T01:06:42.343Z,22.7
2017-05-20T01:07:52.298Z,22.7
2017-05-20T01:09:02.258Z,22.72
2017-05-20T01:10:11.898Z,22.65
2017-05-20T01:11:21.538Z,22.7
2017-05-20T01:12:31.498Z,22.68
2017-05-20T01:13:41.137Z,22.68
2017-05-20T01:14:50.461Z,22.68
2017-05-20T01:16:00.733Z,22.65
2017-05-20T01:17:10.370Z,22.65
2017-05-20T01:18:20.015Z,22.64
2017-05-20T01:19:29.979Z,22.68
2017-05-20T01:20:39.301Z,22.68
2017-05-20T01:21:49.568Z,22.68
2017-05-20T01:22:59.836Z,22.67
2017-05-20T01:24:09.479Z,22.64
2017-05-20T01:25:18.808Z,22.68
2017-05-20T01:26:28.445Z,22.7
2017-05-20T01:27:38.392Z,22.68
2017-05-20T01:28:48.351Z,22.7
2017-05-20T01:29:58.623Z,22.62
2017-05-20T01:31:08.574Z,22.7
2017-05-20T01:32:18.837Z,22.7
2017-05-20T01:33:28.795Z,22.72
2017-05-20T01:34:38.436Z,22.64
2017-05-20T01:35:48.399Z,22.61
2017-05-20T01:36:58.352Z,22.67
2017-05-20T01:38:07.987Z,22.68
2017-05-20T01:39:18.254Z,22.67
2017-05-20T01:40:28.527Z,22.7
2017-05-20T01:41:38.476Z,22.67
2017-05-20T01:42:48.487Z,22.62
2017-05-20T01:43:57.811Z,22.68
2017-05-20T01:45:07.761Z,22.68
2017-05-20T01:46:17.391Z,22.64
2017-05-20T01:47:27.659Z,22.55
2017-05-20T01:48:37.304Z,22.52
2017-05-20T01:49:47.261Z,22.58
2017-05-20T01:50:56.590Z,22.62
2017-05-20T01:52:06.220Z,22.58
2017-05-20T01:53:16.171Z,22.64
2017-05-20T01:54:25.503Z,22.61
2017-05-20T01:55:34.831Z,22.58
2017-05-20T01:56:45.098Z,22.6
2017-05-20T01:57:54.435Z,22.7
2017-05-20T01:59:04.382Z,22.58
2017-05-20T02:00:14.339Z,22.6
2017-05-20T02:01:24.612Z,22.64
2017-05-20T02:02:34.882Z,22.7
2017-05-20T02:03:44.833Z,22.67
2017-05-20T02:04:54.485Z,22.61
2017-05-20T02:06:04.442Z,22.57
2017-05-20T02:07:14.394Z,22.72
2017-05-20T02:08:24.664Z,22.58
2017-05-20T02:09:34.623Z,22.64
2017-05-20T02:10:44.266Z,22.62
2017-05-20T02:11:54.534Z,22.68
2017-05-20T02:13:04.485Z,22.58
2017-05-20T02:14:14.432Z,22.64
2017-05-20T02:15:24.389Z,22.6
2017-05-20T02:16:33.718Z,22.57
2017-05-20T02:17:43.430Z,22.61
2017-05-20T02:18:53.380Z,22.64
2017-05-20T02:20:03.645Z,22.55
2017-05-20T02:21:13.912Z,22.61
2017-05-20T02:22:22.916Z,22.62
2017-05-20T02:23:32.903Z,22.64
2017-05-20T02:24:42.653Z,22.61
2017-05-20T02:25:52.041Z,22.65
2017-05-20T02:27:01.993Z,22.58
2017-05-20T02:28:11.311Z,22.6
2017-05-20T02:29:20.639Z,22.55
2017-05-20T02:30:30.278Z,22.68
2017-05-20T02:31:40.233Z,22.61
2017-05-20T02:32:49.563Z,22.6
2017-05-20T02:33:59.209Z,22.64
2017-05-20T02:35:09.470Z,22.6
2017-05-20T02:36:19.417Z,22.67
2017-05-20T02:37:29.372Z,22.61
2017-05-20T02:38:39.334Z,22.67
2017-05-20T02:39:48.974Z,22.7
2017-05-20T02:40:58.923Z,22.64
2017-05-20T02:42:08.898Z,22.62
2017-05-20T02:43:19.167Z,22.58
2017-05-20T02:44:29.438Z,22.55
2017-05-20T02:45:39.390Z,22.67
2017-05-20T02:46:49.664Z,22.6
2017-05-20T02:47:59.619Z,22.64
2017-05-20T02:49:09.893Z,22.65
2017-05-20T02:50:19.848Z,22.58
2017-05-20T02:51:30.111Z,22.58
2017-05-20T02:52:39.760Z,22.57
2017-05-20T02:53:50.025Z,22.7
2017-05-20T02:55:00.302Z,22.57
2017-05-20T02:56:10.256Z,22.58
2017-05-20T02:57:20.210Z,22.6
2017-05-20T02:58:30.176Z,22.6
2017-05-20T02:59:40.129Z,22.6
2017-05-20T03:00:49.766Z,22.6
2017-05-20T03:02:00.037Z,22.55
2017-05-20T03:03:09.987Z,22.6
2017-05-20T03:04:19.623Z,22.62
2017-05-20T03:05:29.583Z,22.58
2017-05-20T03:06:39.537Z,22.6
2017-05-20T03:07:49.179Z,22.57
2017-05-20T03:08:59.453Z,22.6
2017-05-20T03:10:09.091Z,22.62
2017-05-20T03:11:19.044Z,22.52
2017-05-20T03:12:29.311Z,22.54
2017-05-20T03:13:39.575Z,22.55
2017-05-20T03:14:49.850Z,22.51
2017-05-20T03:15:59.799Z,22.58
2017-05-20T03:17:09.750Z,22.57
2017-05-20T03:18:19.701Z,22.58
2017-05-20T03:19:29.338Z,22.57
2017-05-20T03:20:38.671Z,22.57
2017-05-20T03:21:48.626Z,22.61
2017-05-20T03:22:58.892Z,22.57
2017-05-20T03:24:08.214Z,22.49
2017-05-20T03:25:18.499Z,22.57
2017-05-20T03:26:28.766Z,22.6
2017-05-20T03:27:38.405Z,22.55
2017-05-20T03:28:48.358Z,22.47
2017-05-20T03:29:58.337Z,22.52
2017-05-20T03:31:08.605Z,22.51
2017-05-20T03:32:18.564Z,22.46
2017-05-20T03:33:28.517Z,22.52
2017-05-20T03:34:38.787Z,22.54
2017-05-20T03:35:48.743Z,22.52
2017-05-20T03:36:58.695Z,22.54
2017-05-20T03:38:07.705Z,22.54
2017-05-20T03:39:17.349Z,22.54
2017-05-20T03:40:27.621Z,22.52
2017-05-20T03:41:37.577Z,22.49
2017-05-20T03:42:47.529Z,22.46
2017-05-20T03:43:57.493Z,22.47
2017-05-20T03:45:07.448Z,22.43
2017-05-20T03:46:17.085Z,22.52
2017-05-20T03:47:27.037Z,22.49
2017-05-20T03:48:37.310Z,22.52
2017-05-20T03:49:47.268Z,22.52
2017-05-20T03:50:57.535Z,22.55
2017-05-20T03:52:07.798Z,22.51
2017-05-20T03:53:17.433Z,22.55
2017-05-20T03:54:27.402Z,22.49
2017-05-20T03:55:37.679Z,22.49
2017-05-20T03:56:47.948Z,22.52
2017-05-20T03:57:57.911Z,22.51
2017-05-20T03:59:07.257Z,22.54
2017-05-20T04:00:17.529Z,22.47
2017-05-20T04:01:27.793Z,22.47
2017-05-20T04:02:37.745Z,22.47
2017-05-20T04:03:47.394Z,22.49
2017-05-20T04:04:57.354Z,22.46
2017-05-20T04:06:06.998Z,22.54
2017-05-20T04:07:17.262Z,22.51
2017-05-20T04:08:26.897Z,22.47
2017-05-20T04:09:36.542Z,22.51
2017-05-20T04:10:46.813Z,22.46
2017-05-20T04:11:56.768Z,22.49
2017-05-20T04:13:07.033Z,22.55
2017-05-20T04:14:16.992Z,22.37
2017-05-20T04:15:26.315Z,22.43
2017-05-20T04:16:36.583Z,22.42
2017-05-20T04:17:46.224Z,22.43
2017-05-20T04:18:56.186Z,22.54
2017-05-20T04:20:06.132Z,22.52
2017-05-20T04:21:16.100Z,22.46
2017-05-20T04:22:26.048Z,22.33
2017-05-20T04:23:36.313Z,22.33
2017-05-20T04:24:46.275Z,22.35
2017-05-20T04:25:56.233Z,22.31
2017-05-20T04:27:05.868Z,22.37
2017-05-20T04:28:15.830Z,22.39
2017-05-20T04:29:25.781Z,22.36
2017-05-20T04:30:36.056Z,22.49
2017-05-20T04:31:46.320Z,22.46
2017-05-20T04:32:56.589Z,22.33
2017-05-20T04:34:06.542Z,22.39
2017-05-20T04:35:16.495Z,22.39
2017-05-20T04:36:26.767Z,22.36
2017-05-20T04:37:36.720Z,22.39
2017-05-20T04:38:46.046Z,22.36
2017-05-20T04:39:55.996Z,22.39
2017-05-20T04:41:05.637Z,22.43
2017-05-20T04:42:15.589Z,22.42
2017-05-20T04:43:25.861Z,22.39
2017-05-20T04:44:36.158Z,22.33
2017-05-20T04:45:46.425Z,22.36
2017-05-20T04:46:56.061Z,22.39
2017-05-20T04:48:06.016Z,22.36
2017-05-20T04:49:15.968Z,22.47
2017-05-20T04:50:25.923Z,22.51
2017-05-20T04:51:36.222Z,22.51
2017-05-20T04:52:45.547Z,22.46
2017-05-20T04:53:55.186Z,22.4
2017-05-20T04:55:05.146Z,22.52
2017-05-20T04:56:15.467Z,22.45
2017-05-20T04:57:25.732Z,22.49
2017-05-20T04:58:35.688Z,22.45
2017-05-20T04:59:45.365Z,22.51
2017-05-20T05:00:55.636Z,22.4
2017-05-20T05:02:04.956Z,22.42
2017-05-20T05:03:14.603Z,22.45
2017-05-20T05:04:24.246Z,22.49
2017-05-20T05:05:34.521Z,22.39
2017-05-20T05:06:44.467Z,22.45
2017-05-20T05:07:54.733Z,22.36
2017-05-20T05:09:04.686Z,22.39
2017-05-20T05:10:14.954Z,22.33
2017-05-20T05:11:25.218Z,22.31
2017-05-20T05:12:34.853Z,22.36
2017-05-20T05:13:44.175Z,22.36
2017-05-20T05:14:54.442Z,22.39
2017-05-20T05:16:04.719Z,22.37
2017-05-20T05:17:14.679Z,22.39
2017-05-20T05:18:24.947Z,22.39
2017-05-20T05:19:35.223Z,22.33
2017-05-20T05:20:44.860Z,22.36
2017-05-20T05:21:54.500Z,22.31
2017-05-20T05:23:04.445Z,22.36
2017-05-20T05:24:14.080Z,22.31
2017-05-20T05:25:23.711Z,22.31
2017-05-20T05:26:33.670Z,22.39
2017-05-20T05:27:43.622Z,22.33
2017-05-20T05:28:53.575Z,22.36
2017-05-20T05:30:03.838Z,22.37
2017-05-20T05:31:13.162Z,22.33
2017-05-20T05:32:23.451Z,22.37
2017-05-20T05:33:33.420Z,22.37
2017-05-20T05:34:43.687Z,22.39
2017-05-20T05:35:53.959Z,22.37
2017-05-20T05:37:03.598Z,22.39
2017-05-20T05:38:13.551Z,22.33
2017-05-20T05:39:23.818Z,22.39
2017-05-20T05:40:33.462Z,22.37
2017-05-20T05:41:43.728Z,22.37
2017-05-20T05:42:53.675Z,22.35
2017-05-20T05:44:03.969Z,22.33
2017-05-20T05:45:13.921Z,22.33
2017-05-20T05:46:23.558Z,22.49
2017-05-20T05:47:33.192Z,22.33
2017-05-20T05:48:43.155Z,22.43
2017-05-20T05:49:53.105Z,22.36
2017-05-20T05:51:03.061Z,22.39
2017-05-20T05:52:12.697Z,22.33
2017-05-20T05:53:22.018Z,22.43
2017-05-20T05:54:31.976Z,22.35
2017-05-20T05:55:42.250Z,22.33
2017-05-20T05:56:51.888Z,22.36
2017-05-20T05:58:02.154Z,22.35
2017-05-20T05:59:12.430Z,22.35
2017-05-20T06:00:22.134Z,22.46
2017-05-20T06:01:32.085Z,22.47
2017-05-20T06:02:41.412Z,22.36
2017-05-20T06:03:51.366Z,22.36
2017-05-20T06:05:01.317Z,22.35
2017-05-20T06:06:10.956Z,22.36
2017-05-20T06:07:20.595Z,22.36
2017-05-20T06:08:30.230Z,22.31
2017-05-20T06:09:40.185Z,22.39
2017-05-20T06:10:49.565Z,22.39
2017-05-20T06:11:59.522Z,22.43
2017-05-20T06:13:09.481Z,22.39
2017-05-20T06:14:19.436Z,22.37
2017-05-20T06:15:29.079Z,22.35
2017-05-20T06:16:39.345Z,22.42
2017-05-20T06:17:48.988Z,22.36
2017-05-20T06:18:58.002Z,22.36
2017-05-20T06:20:08.271Z,22.42
2017-05-20T06:21:18.228Z,22.36
2017-05-20T06:22:27.867Z,22.35
2017-05-20T06:23:38.136Z,22.43
2017-05-20T06:24:48.405Z,22.39
2017-05-20T06:25:58.033Z,22.36
2017-05-20T06:27:08.296Z,22.4
2017-05-20T06:28:17.936Z,22.37
2017-05-20T06:29:27.890Z,22.4
2017-05-20T06:30:37.845Z,22.37
2017-05-20T06:31:47.488Z,22.4
2017-05-20T06:32:57.446Z,22.36
2017-05-20T06:34:07.711Z,22.4
2017-05-20T06:35:17.987Z,22.37
2017-05-20T06:36:27.937Z,22.42
2017-05-20T06:37:38.201Z,22.42
2017-05-20T06:38:48.155Z,22.43
2017-05-20T06:39:58.106Z,22.42
2017-05-20T06:41:08.369Z,22.36
2017-05-20T06:42:18.009Z,22.43
2017-05-20T06:43:27.963Z,22.42
2017-05-20T06:44:38.235Z,22.36
2017-05-20T06:45:47.878Z,22.42
2017-05-20T06:46:57.829Z,22.4
2017-05-20T06:48:07.163Z,22.36
2017-05-20T06:49:16.491Z,22.37
2017-05-20T06:50:26.453Z,22.4
2017-05-20T06:51:36.717Z,22.43
2017-05-20T06:52:46.364Z,22.37
2017-05-20T06:53:56.315Z,22.45
2017-05-20T06:55:05.948Z,22.4
2017-05-20T06:56:15.917Z,22.36
2017-05-20T06:57:26.179Z,22.39
2017-05-20T06:58:36.449Z,22.39
2017-05-20T06:59:46.099Z,22.39
2017-05-20T07:00:56.052Z,22.39
2017-05-20T07:02:06.333Z,22.37
2017-05-20T07:03:16.287Z,22.39
2017-05-20T07:04:25.609Z,22.36
2017-05-20T07:05:35.252Z,22.42
2017-05-20T07:06:45.208Z,22.42
2017-05-20T07:07:55.488Z,22.42
2017-05-20T07:09:05.747Z,22.4
2017-05-20T07:10:15.697Z,22.4
2017-05-20T07:11:25.961Z,22.39
2017-05-20T07:12:35.598Z,22.42
2017-05-20T07:13:45.877Z,22.39
2017-05-20T07:14:56.150Z,22.33
2017-05-20T07:16:06.421Z,22.35
2017-05-20T07:17:15.748Z,22.42
2017-05-20T07:18:26.028Z,22.39
2017-05-20T07:19:35.661Z,22.4
2017-05-20T07:20:45.299Z,22.42
2017-05-20T07:21:55.251Z,22.51
2017-05-20T07:23:04.889Z,22.49
2017-05-20T07:24:14.530Z,22.52
2017-05-20T07:25:24.800Z,22.51
2017-05-20T07:26:35.073Z,22.54
2017-05-20T07:27:45.029Z,22.4
2017-05-20T07:28:55.295Z,22.45
2017-05-20T07:30:05.251Z,22.47
2017-05-20T07:31:15.204Z,22.49
2017-05-20T07:32:25.470Z,22.46
2017-05-20T07:33:35.437Z,22.18
2017-05-20T07:34:45.711Z,21.72
2017-05-20T07:35:55.661Z,21.58
2017-05-20T07:37:05.603Z,21.35
2017-05-20T07:38:15.561Z,21.31
2017-05-20T07:39:25.508Z,21.5
2017-05-20T07:40:35.462Z,21.65
2017-05-20T07:41:45.103Z,21.86
2017-05-20T07:42:55.055Z,22.02
2017-05-20T07:44:05.005Z,22.03
2017-05-20T07:45:14.643Z,22.15
2017-05-20T07:46:24.595Z,22.28
2017-05-20T07:47:34.545Z,22.22
2017-05-20T07:48:44.504Z,22.35
2017-05-20T07:49:54.456Z,22.31
2017-05-20T07:51:04.407Z,22.37
2017-05-20T07:52:14.366Z,22.31
2017-05-20T07:53:24.323Z,22.33
2017-05-20T07:54:34.277Z,22.43
2017-05-20T07:55:44.534Z,22.39
2017-05-20T07:56:54.491Z,22.42
2017-05-20T07:58:04.760Z,22.33
2017-05-20T07:59:14.399Z,22.35
2017-05-20T08:00:24.678Z,22.39
2017-05-20T08:01:34.629Z,22.36
2017-05-20T08:02:44.581Z,22.46
2017-05-20T08:03:54.230Z,22.55
2017-05-20T08:05:03.873Z,22.52
2017-05-20T08:06:13.820Z,22.43
2017-05-20T08:07:23.456Z,22.51
2017-05-20T08:08:33.731Z,22.6
2017-05-20T08:09:43.377Z,22.52
2017-05-20T08:10:53.013Z,22.47
2017-05-20T08:12:02.966Z,22.49
2017-05-20T08:13:12.914Z,22.62
2017-05-20T08:14:22.885Z,22.51
2017-05-20T08:15:33.157Z,22.6
2017-05-20T08:16:43.423Z,22.58
2017-05-20T08:17:53.369Z,22.6
2017-05-20T08:19:03.318Z,22.54
2017-05-20T08:20:13.278Z,22.55
2017-05-20T08:21:22.912Z,22.61
2017-05-20T08:22:33.177Z,22.64
2017-05-20T08:23:43.127Z,22.68
2017-05-20T08:24:52.457Z,22.73
2017-05-20T08:26:02.408Z,22.65
2017-05-20T08:27:12.044Z,22.7
2017-05-20T08:28:21.995Z,22.68
2017-05-20T08:29:31.632Z,22.72
2017-05-20T08:30:41.580Z,22.75
2017-05-20T08:31:51.215Z,22.75
2017-05-20T08:33:01.487Z,22.73
2017-05-20T08:34:11.129Z,22.72
2017-05-20T08:35:21.396Z,22.73
2017-05-20T08:36:31.032Z,22.76
2017-05-20T08:37:41.305Z,22.68
2017-05-20T08:38:50.950Z,22.73
2017-05-20T08:40:01.215Z,22.68
2017-05-20T08:41:11.164Z,22.73
2017-05-20T08:42:21.123Z,22.73
2017-05-20T08:43:31.078Z,22.8
2017-05-20T08:44:41.028Z,22.8
2017-05-20T08:45:50.669Z,22.77
2017-05-20T08:47:00.618Z,22.85
2017-05-20T08:48:10.570Z,22.82
2017-05-20T08:49:20.842Z,22.82
2017-05-20T08:50:30.795Z,22.86
2017-05-20T08:51:40.747Z,22.91
2017-05-20T08:52:50.067Z,22.88
2017-05-20T08:54:00.341Z,22.82
2017-05-20T08:55:10.296Z,22.83
2017-05-20T08:56:20.565Z,22.8
2017-05-20T08:57:30.843Z,22.79
2017-05-20T08:58:40.802Z,22.73
2017-05-20T08:59:50.755Z,22.75
2017-05-20T09:01:00.394Z,22.73
2017-05-20T09:02:10.031Z,22.75
2017-05-20T09:03:19.988Z,22.79
2017-05-20T09:04:29.646Z,22.75
2017-05-20T09:05:38.967Z,22.7
2017-05-20T09:06:48.286Z,22.72
2017-05-20T09:07:58.552Z,22.77
2017-05-20T09:09:08.501Z,22.76
2017-05-20T09:10:18.143Z,22.77
2017-05-20T09:11:28.410Z,22.72
2017-05-20T09:12:38.393Z,22.73
2017-05-20T09:13:47.714Z,22.76
2017-05-20T09:14:57.360Z,22.7
2017-05-20T09:16:07.305Z,22.65
2017-05-20T09:17:17.572Z,22.76
2017-05-20T09:18:26.894Z,22.75
2017-05-20T09:19:37.166Z,22.75
2017-05-20T09:20:47.434Z,22.76
2017-05-20T09:21:56.758Z,22.72
2017-05-20T09:23:06.711Z,22.65
2017-05-20T09:24:16.670Z,22.73
2017-05-20T09:25:26.936Z,22.68
2017-05-20T09:26:36.889Z,22.68
2017-05-20T09:27:46.846Z,22.75
2017-05-20T09:28:56.487Z,22.76
2017-05-20T09:30:06.125Z,22.76
2017-05-20T09:31:15.768Z,22.65
2017-05-20T09:32:25.751Z,22.76
2017-05-20T09:33:35.388Z,22.73
2017-05-20T09:34:45.663Z,22.68
2017-05-20T09:35:55.618Z,22.68
2017-05-20T09:37:05.255Z,22.76
2017-05-20T09:38:15.209Z,22.67
2017-05-20T09:39:25.479Z,22.7
2017-05-20T09:40:35.117Z,22.75
2017-05-20T09:41:44.761Z,22.7
2017-05-20T09:42:54.722Z,22.76
2017-05-20T09:44:04.670Z,22.72
2017-05-20T09:45:13.992Z,22.76
2017-05-20T09:46:23.961Z,22.73
2017-05-20T09:47:33.916Z,22.73
2017-05-20T09:48:43.869Z,22.75
2017-05-20T09:49:53.504Z,22.72
2017-05-20T09:51:03.455Z,22.76
2017-05-20T09:52:13.409Z,22.77
2017-05-20T09:53:23.360Z,22.76
2017-05-20T09:54:33.633Z,22.73
2017-05-20T09:55:43.584Z,22.8
2017-05-20T09:56:53.223Z,22.68
2017-05-20T09:58:03.488Z,22.75
2017-05-20T09:59:13.757Z,22.73
2017-05-20T10:00:23.714Z,22.7
2017-05-20T10:01:33.991Z,22.8
2017-05-20T10:02:43.633Z,22.76
2017-05-20T10:03:53.277Z,22.76
2017-05-20T10:05:03.228Z,22.8
2017-05-20T10:06:13.176Z,22.73
2017-05-20T10:07:23.131Z,22.72
2017-05-20T10:08:33.394Z,22.76
2017-05-20T10:09:43.659Z,22.76
2017-05-20T10:10:53.617Z,22.8
2017-05-20T10:12:02.938Z,22.73
2017-05-20T10:13:12.892Z,22.79
2017-05-20T10:14:22.219Z,22.79
2017-05-20T10:15:32.177Z,22.83
2017-05-20T10:16:42.449Z,22.86
2017-05-20T10:17:52.091Z,22.83
2017-05-20T10:19:01.731Z,22.86
2017-05-20T10:20:11.686Z,22.85
2017-05-20T10:21:21.952Z,22.83
2017-05-20T10:22:32.227Z,22.82
2017-05-20T10:23:41.554Z,22.82
2017-05-20T10:24:51.518Z,22.8
2017-05-20T10:26:01.786Z,22.85
2017-05-20T10:27:11.744Z,22.8
2017-05-20T10:28:21.747Z,22.83
2017-05-20T10:29:32.024Z,22.82
2017-05-20T10:30:41.662Z,22.83
2017-05-20T10:31:51.934Z,22.82
2017-05-20T10:33:01.570Z,22.83
2017-05-20T10:34:11.843Z,22.82
2017-05-20T10:35:21.785Z,22.86
2017-05-20T10:36:31.750Z,22.86
2017-05-20T10:37:42.033Z,22.8
2017-05-20T10:38:51.668Z,22.88
2017-05-20T10:40:00.688Z,22.92
2017-05-20T10:41:10.637Z,22.82
2017-05-20T10:42:20.908Z,22.88
2017-05-20T10:43:31.174Z,22.83
2017-05-20T10:44:41.137Z,22.83
2017-05-20T10:45:51.410Z,22.9
2017-05-20T10:47:01.368Z,22.88
2017-05-20T10:48:10.380Z,22.92
2017-05-20T10:49:20.024Z,22.98
2017-05-20T10:50:29.982Z,22.98
2017-05-20T10:51:39.301Z,22.94
2017-05-20T10:52:48.630Z,23
2017-05-20T10:53:58.900Z,22.94
2017-05-20T10:55:08.857Z,22.94
2017-05-20T10:56:18.803Z,23.01
2017-05-20T10:57:29.144Z,23
2017-05-20T10:58:38.776Z,23
2017-05-20T10:59:47.795Z,22.98
2017-05-20T11:00:57.750Z,22.97
2017-05-20T11:02:08.017Z,22.98
2017-05-20T11:03:17.671Z,22.92
2017-05-20T11:04:27.629Z,22.97
2017-05-20T11:05:37.589Z,22.95
2017-05-20T11:06:46.912Z,22.98
2017-05-20T11:07:56.868Z,22.91
2017-05-20T11:09:06.509Z,22.94
2017-05-20T11:10:16.460Z,22.95
2017-05-20T11:11:26.412Z,22.98
2017-05-20T11:12:36.675Z,23
2017-05-20T11:13:46.333Z,22.95
2017-05-20T11:14:56.281Z,22.92
2017-05-20T11:16:06.236Z,22.94
2017-05-20T11:17:15.556Z,22.92
2017-05-20T11:18:25.833Z,22.83
2017-05-20T11:19:35.157Z,22.86
2017-05-20T11:20:44.171Z,22.8
2017-05-20T11:21:54.124Z,22.8
2017-05-20T11:23:03.765Z,22.85
2017-05-20T11:24:13.740Z,22.88
2017-05-20T11:25:23.389Z,22.9
2017-05-20T11:26:33.651Z,22.85
2017-05-20T11:27:43.921Z,22.88
2017-05-20T11:28:53.240Z,22.94
2017-05-20T11:30:03.191Z,22.88
2017-05-20T11:31:13.456Z,22.88
2017-05-20T11:32:23.407Z,22.92
2017-05-20T11:33:33.419Z,22.88
2017-05-20T11:34:43.692Z,22.92
2017-05-20T11:35:54.054Z,22.9
2017-05-20T11:37:04.122Z,22.97
2017-05-20T11:38:14.134Z,22.94
2017-05-20T11:39:23.771Z,23.02
2017-05-20T11:40:34.039Z,22.85
2017-05-20T11:41:43.980Z,22.9
2017-05-20T11:42:53.620Z,22.94
2017-05-20T11:44:03.572Z,22.94
2017-05-20T11:45:13.530Z,22.94
2017-05-20T11:46:23.478Z,22.94
2017-05-20T11:47:33.426Z,22.9
2017-05-20T11:48:43.703Z,23
2017-05-20T11:49:53.658Z,22.95
2017-05-20T11:51:03.615Z,22.97
2017-05-20T11:52:13.880Z,22.98
2017-05-20T11:53:23.835Z,22.98
2017-05-20T11:54:33.798Z,22.97
2017-05-20T11:55:44.063Z,22.97
2017-05-20T11:56:53.387Z,22.95
2017-05-20T11:58:03.360Z,22.95
2017-05-20T11:59:13.371Z,22.98
2017-05-20T12:00:23.650Z,23.02
2017-05-20T12:01:33.916Z,22.94
2017-05-20T12:02:44.182Z,22.95
2017-05-20T12:03:54.143Z,22.92
2017-05-20T12:05:03.467Z,23.02
2017-05-20T12:06:13.103Z,23.09
2017-05-20T12:07:23.369Z,22.98
2017-05-20T12:08:33.638Z,23.02
2017-05-20T12:09:43.911Z,23.01
2017-05-20T12:10:54.179Z,23.01
2017-05-20T12:12:03.500Z,22.98
2017-05-20T12:13:13.767Z,23.12
2017-05-20T12:14:23.733Z,23.12
2017-05-20T12:15:34.008Z,23.12
2017-05-20T12:16:44.273Z,23.16
2017-05-20T12:17:53.916Z,23.13
2017-05-20T12:19:03.868Z,23.07
2017-05-20T12:20:14.140Z,23.16
2017-05-20T12:21:24.421Z,23.13
2017-05-20T12:22:34.380Z,23.16
2017-05-20T12:23:44.021Z,23.09
2017-05-20T12:24:54.033Z,23.16
2017-05-20T12:26:04.318Z,23.09
2017-05-20T12:27:14.278Z,23.16
2017-05-20T12:28:23.606Z,23.15
2017-05-20T12:29:33.883Z,23.1
2017-05-20T12:30:43.524Z,23.2
2017-05-20T12:31:53.783Z,23.15
2017-05-20T12:33:03.476Z,23.09
2017-05-20T12:34:13.443Z,23.12
2017-05-20T12:35:23.399Z,23.17
2017-05-20T12:36:33.665Z,23.15
2017-05-20T12:37:43.304Z,23.19
2017-05-20T12:38:52.634Z,23.13
2017-05-20T12:40:02.596Z,23.05
2017-05-20T12:41:12.554Z,23
2017-05-20T12:42:22.818Z,23
2017-05-20T12:43:32.796Z,23.12
2017-05-20T12:44:43.063Z,23.13
2017-05-20T12:45:53.015Z,23.01
2017-05-20T12:47:03.279Z,23.05
2017-05-20T12:48:13.234Z,23
2017-05-20T12:49:22.876Z,23
2017-05-20T12:50:32.831Z,23.01
2017-05-20T12:51:42.779Z,22.94
2017-05-20T12:52:52.417Z,23.09
2017-05-20T12:54:02.054Z,23.02
2017-05-20T12:55:11.380Z,23.07
2017-05-20T12:56:21.026Z,22.95
2017-05-20T12:57:30.976Z,22.97
2017-05-20T12:58:41.241Z,23
2017-05-20T12:59:51.202Z,23.04
2017-05-20T13:01:01.469Z,23.01
2017-05-20T13:02:11.421Z,23
2017-05-20T13:03:21.380Z,22.94
2017-05-20T13:04:30.713Z,23.05
2017-05-20T13:05:40.980Z,22.98
2017-05-20T13:06:50.940Z,23.04
2017-05-20T13:08:00.893Z,23
2017-05-20T13:09:10.842Z,22.92
2017-05-20T13:10:20.167Z,22.95
2017-05-20T13:11:29.492Z,23.01
2017-05-20T13:12:39.445Z,23
2017-05-20T13:13:49.731Z,23.01
2017-05-20T13:14:59.997Z,23.04
2017-05-20T13:16:09.636Z,23.02
2017-05-20T13:17:19.591Z,23.09
2017-05-20T13:18:29.856Z,22.98
2017-05-20T13:19:40.137Z,22.97
2017-05-20T13:20:50.095Z,23.01
2017-05-20T13:21:59.729Z,23.04
2017-05-20T13:23:09.363Z,23.01
2017-05-20T13:24:19.320Z,23.01
2017-05-20T13:25:29.649Z,23.09
2017-05-20T13:26:39.928Z,23.07
2017-05-20T13:27:49.893Z,23.15
2017-05-20T13:29:00.172Z,22.95
2017-05-20T13:30:10.123Z,23.04
2017-05-20T13:31:20.396Z,23.05
2017-05-20T13:32:30.342Z,23.05
2017-05-20T13:33:40.612Z,23.12
2017-05-20T13:34:50.873Z,23.05
2017-05-20T13:36:00.825Z,23.13
2017-05-20T13:37:10.464Z,23.13
2017-05-20T13:38:20.730Z,23.09
2017-05-20T13:39:30.738Z,23.16
2017-05-20T13:40:40.695Z,23.02
2017-05-20T13:41:50.327Z,23.09
2017-05-20T13:42:59.650Z,23.15
2017-05-20T13:44:09.969Z,23.04
2017-05-20T13:45:19.925Z,23.09
2017-05-20T13:46:30.192Z,23.17
2017-05-20T13:47:40.461Z,23.17
2017-05-20T13:48:50.420Z,23.12
2017-05-20T13:50:00.691Z,23.2
2017-05-20T13:51:10.958Z,23.15
2017-05-20T13:52:20.912Z,23.13
2017-05-20T13:53:31.196Z,23.19
2017-05-20T13:54:41.146Z,23.12
2017-05-20T13:55:51.094Z,23.23
2017-05-20T13:57:00.417Z,23.19
2017-05-20T13:58:09.741Z,23.13
2017-05-20T13:59:19.699Z,23.16
2017-05-20T14:00:29.033Z,23.17
2017-05-20T14:01:38.720Z,23.22
2017-05-20T14:02:48.985Z,23.15
2017-05-20T14:03:58.942Z,23.07
2017-05-20T14:05:08.898Z,23.13
2017-05-20T14:06:18.546Z,23.2
2017-05-20T14:07:27.870Z,23.17
2017-05-20T14:08:37.824Z,23.22
2017-05-20T14:09:47.775Z,23.05
2017-05-20T14:10:57.430Z,23.13
2017-05-20T14:12:07.389Z,23.22
2017-05-20T14:13:17.351Z,23.1
2017-05-20T14:14:27.307Z,23.16
2017-05-20T14:15:37.583Z,23.12
2017-05-20T14:16:47.535Z,23.16
2017-05-20T14:17:57.493Z,23.12
2017-05-20T14:19:07.133Z,23.12
2017-05-20T14:20:17.083Z,23.16
2017-05-20T14:21:27.031Z,23.07
2017-05-20T14:22:37.298Z,23.16
2017-05-20T14:23:46.949Z,23.13
2017-05-20T14:24:56.590Z,23.15
2017-05-20T14:26:06.232Z,23.15
2017-05-20T14:27:16.506Z,23.12
2017-05-20T14:28:26.457Z,23.12
2017-05-20T14:29:36.731Z,23.17
2017-05-20T14:30:46.767Z,23.17
2017-05-20T14:31:56.723Z,23.05
2017-05-20T14:33:06.047Z,23.1
2017-05-20T14:34:15.998Z,23.15
2017-05-20T14:35:25.957Z,23.1
2017-05-20T14:36:35.904Z,23.2
2017-05-20T14:37:45.220Z,23.15
2017-05-20T14:38:55.487Z,23.17
2017-05-20T14:40:05.754Z,23.15
2017-05-20T14:41:15.392Z,23.12
2017-05-20T14:42:25.348Z,23.09
2017-05-20T14:43:35.309Z,23.12
2017-05-20T14:44:44.634Z,23.12
2017-05-20T14:45:54.589Z,23.16
2017-05-20T14:47:03.910Z,23.17
2017-05-20T14:48:13.550Z,23.07
2017-05-20T14:49:23.514Z,23.17
2017-05-20T14:50:33.157Z,23.12
2017-05-20T14:51:43.111Z,23.15
2017-05-20T14:52:53.066Z,23.12
2017-05-20T14:54:03.019Z,23.05
2017-05-20T14:55:12.975Z,23.07
2017-05-20T14:56:22.610Z,23.15
2017-05-20T14:57:32.262Z,23.17
2017-05-20T14:58:41.907Z,23.12
2017-05-20T14:59:51.861Z,23.07
2017-05-20T15:01:01.506Z,23.17
2017-05-20T15:02:10.838Z,23.07
2017-05-20T15:03:20.792Z,23.22
2017-05-20T15:04:30.428Z,23.13